N3EG-9>GPSMV,WIDE1-1,WIDE2-2,qAR,W7DG-5:$GPRMC,224956.000,A,4609.1105,N,12258.8165,W,0.11,146.19,210624,,,A*72
N3EG-9>BEACON,WIDE1-1,WIDE2-2,qAR,W7DG-5:T#006,124,083,036,020,077,00010001
N3EG-9>BEACON,WIDE1-1,WIDE2-2,qAR,W7DG-5:T#007,124,081,035,020,077,00010001
N3EG-9>GPSMV,WIDE1-1,WIDE2-2,qAR,W7DG-5:$GPRMC,224956.000,A,4609.1105,N,12258.8165,W,0.11,146.19,210624,,,A*72
N3EG-9>BEACON,WIDE1-1,WIDE2-2,qAR,W7DG-5:T#008,123,079,035,020,077,00010001
N3EG-9>BEACON,WIDE1-1,WIDE2-2,qAR,W7DG-5:T#009,123,077,034,020,078,00010001
N3EG-9>GPSMV,WIDE1-1,WIDE2-2,qAR,W7DG-5:$GPRMC,224956.000,A,4609.1105,N,12258.8165,W,0.11,146.19,210624,,,A*72
N3EG-9>BEACON,WIDE1-1,WIDE2-2,qAR,W7DG-5:T#010,123,075,034,019,078,00010001
N3EG-9>GPSMV,qAR,W7DG-5:$GPGGA,235948.058,0000.0000,N,00000.0000,E,0,00,,0.0,M,0.0,M,,0000*4F
N3EG-9>GPSMV,WIDE1-1,WIDE2-2,qAR,W7DG-5:$GPGGA,235947.068,0000.0000,N,00000.0000,E,0,00,,0.0,M,0.0,M,,0000*43
N3EG-9>GPSMV,WIDE1-1,WIDE1-1,qAR,W7DG-5:$GPRMC,034408.446,V,0000.0000,N,00000.0000,E,,,220624,,,N*7B
N3EG-9>GPSMV,qAR,W7DG-5:$GPGGA,034439.447,0000.0000,N,00000.0000,E,0,00,,0.0,M,0.0,M,,0000*4D
N3EG-9>GPSMV,qAR,W7DG-5:$GPGGA,034544.452,0000.0000,N,00000.0000,E,0,00,,0.0,M,0.0,M,,0000*42
N3EG-9>GPSMV,qAS,N3EG:$GPGGA,034649.453,4609.1076,N,12258.8167,W,1,04,3.3,19.8,M,-19.0,M,,0000*5E
N3EG-9>GPSMV,qAR,W7DG-5:$GPGGA,034754.000,4609.1090,N,12258.8160,W,1,05,2.1,14.4,M,-19.0,M,,0000*5D
N3EG-9>BEACON,WIDE1-1,WIDE2-2,qAR,W7DG-5:T#011,122,073,033,019,078,00010001
N3EG-9>GPSMV,qAR,W7DG-5:$GPGGA,034859.000,4609.1082,N,12258.8147,W,1,05,2.1,16.6,M,-19.0,M,,0000*59
N3EG-9>GPSMV,WIDE1-1,WIDE1-1,qAS,N3EG:$GPRMC,034915.000,A,4609.1085,N,12258.8144,W,0.12,43.15,220624,,,A*44
N3EG-9>GPSMV,qAR,W7DG-5:$GPGGA,035004.000,4609.1052,N,12258.8129,W,1,05,2.1,15.9,M,-19.0,M,,0000*51
N3EG-9>GPSMV,qAS,N3EG:$GPGGA,035106.000,4609.1059,N,12258.8124,W,1,05,2.1,18.8,M,-19.0,M,,0000*58
N3EG-9>GPSMV,qAR,W7DG-5:$GPGGA,035211.000,4609.1060,N,12258.8128,W,1,05,2.1,11.9,M,-19.0,M,,0000*53
N3EG-9>GPSMV,qAR,W7DG-5:$GPGGA,035316.000,4609.1084,N,12258.8130,W,1,06,1.5,7.7,M,-19.0,M,,0000*6B
N3EG-9>GPSMV,WIDE1-1,WIDE2-2,qAR,W7DG-5:$GPGGA,035337.000,4609.1085,N,12258.8129,W,1,06,1.5,8.4,M,-19.0,M,,0000*6D
N3EG-9>GPSMV,WIDE1-1,WIDE1-1,qAR,W7DG-5:$GPRMC,035419.000,A,4609.1083,N,12258.8131,W,0.13,187.78,220624,,,A*73
N3EG-9>GPSMV,qAR,W7DG-5:$GPGGA,035421.000,4609.1086,N,12258.8133,W,1,06,1.5,4.1,M,-19.0,M,,0000*6C
N3EG-9>GPSMV,qAR,W7DG-5:$GPGGA,035526.000,4609.1073,N,12258.8134,W,1,07,1.0,5.2,M,-19.0,M,,0000*61
N3EG-9>GPSMV,qAR,W7DG-5:$GPGGA,035631.000,4609.1080,N,12258.8159,W,1,08,1.0,3.9,M,-19.0,M,,0000*61
N3EG-9>GPSMV,qAR,W7DG-5:$GPGGA,035736.000,4609.1081,N,12258.8168,W,1,08,1.0,5.1,M,-19.0,M,,0000*6A
N3EG-9>GPSMV,qAR,W7DG-5:$GPGGA,035841.000,4609.1088,N,12258.8154,W,1,08,1.0,6.7,M,-19.0,M,,0000*66
N3EG-9>GPSMV,WIDE1-1,WIDE1-1,qAR,W7DG-5:$GPRMC,035926.000,A,4609.1094,N,12258.8158,W,0.09,155.09,220624,,,A*79
N3EG-9>GPSMV,qAR,W7DG-5:$GPGGA,035946.000,4609.1096,N,12258.8159,W,1,08,1.0,10.0,M,-19.0,M,,0000*52
N3EG-9>GPSMV,qAR,W7DG-5:$GPGGA,040051.000,4609.1093,N,12258.8157,W,1,08,1.0,6.4,M,-19.0,M,,0000*67
N3EG-9>GPSMV,qAR,W7DG-5:$GPGGA,040156.000,4609.1089,N,12258.8168,W,1,08,1.0,3.6,M,-19.0,M,,0000*61
N3EG-9>GPSMV,WIDE1-1,WIDE2-2,qAR,W7DG-5:$GPGGA,040156.000,4609.1089,N,12258.8168,W,1,08,1.0,3.6,M,-19.0,M,,0000*61
N3EG-9>GPSMV,WIDE1-1,WIDE1-1,qAR,W7DG-5:$GPRMC,040156.000,A,4609.1089,N,12258.8168,W,0.43,193.00,220624,,,A*76
N3EG-9>GPSMV,WIDE1-1,WIDE2-2,qAR,W7DG-5:$GPRMC,040156.000,A,4609.1089,N,12258.8168,W,0.43,193.00,220624,,,A*76
N3EG-9>BEACON,WIDE1-1,WIDE2-2,qAR,W7DG-5:N3EG-9 mini van tracker TLM=Vdc*10,Temp (F)
N3EG-9>BEACON,WIDE1-1,WIDE2-2,qAR,W7DG-5:T#012,123,071,033,019,078,00010001
N3EG-9>BEACON,WIDE1-1,WIDE2-2,qAR,W7DG-5:T#013,123,069,032,019,078,00010001
N3EG-9>GPSMV,WIDE1-1,WIDE2-2,qAR,W7DG-5:$GPRMC,040156.000,A,4609.1089,N,12258.8168,W,0.43,193.00,220624,,,A*76
N3EG-9>BEACON,WIDE1-1,WIDE2-2,qAR,W7DG-5:T#014,122,068,031,019,078,00010001
N3EG-9>BEACON,WIDE1-1,WIDE2-2,qAR,W7DG-5:T#015,122,067,031,019,078,00010001
N3EG-9>GPSMV,WIDE1-1,WIDE2-2,qAS,N3EG:$GPRMC,040156.000,A,4609.1089,N,12258.8168,W,0.43,193.00,220624,,,A*76
N3EG-9>BEACON,WIDE1-1,WIDE2-2,qAR,W7DG-5:T#016,122,065,030,019,078,00010001
N3EG-9>BEACON,WIDE1-1,WIDE2-2,qAR,W7DG-5:T#017,122,064,030,018,078,00010001
N3EG-9>GPSMV,WIDE1-1,WIDE2-2,qAS,N3EG:$GPRMC,040156.000,A,4609.1089,N,12258.8168,W,0.43,193.00,220624,,,A*76
N3EG-9>BEACON,WIDE1-1,WIDE2-2,qAR,W7DG-5:T#018,122,063,031,019,078,00010001
N3EG-9>BEACON,WIDE1-1,WIDE2-2,qAR,W7DG-5:T#019,122,062,030,019,078,00010001
N3EG-9>GPSMV,WIDE1-1,WIDE2-2,qAR,W7DG-5:$GPRMC,040156.000,A,4609.1089,N,12258.8168,W,0.43,193.00,220624,,,A*76
N3EG-9>BEACON,WIDE1-1,WIDE2-2,qAR,W7DG-5:T#020,122,061,030,018,078,00010001
N3EG-9>BEACON,WIDE1-1,WIDE2-2,qAR,W7DG-5:N3EG-9 mini van tracker TLM=Vdc*10,Temp (F)
N3EG-9>BEACON,WIDE1-1,WIDE2-2,qAR,W7DG-5:T#021,122,060,030,018,078,00010001
N3EG-9>GPSMV,WIDE1-1,WIDE2-2,qAS,N3EG:$GPRMC,040156.000,A,4609.1089,N,12258.8168,W,0.43,193.00,220624,,,A*76
N3EG-9>BEACON,WIDE1-1,WIDE2-2,qAR,W7DG-5:T#022,121,059,030,018,078,00010001
N3EG-9>BEACON,WIDE1-1,WIDE2-2,qAR,W7DG-5:T#023,121,058,029,018,078,00010001
N3EG-9>GPSMV,WIDE1-1,WIDE2-2,qAR,W7DG-5:$GPRMC,040156.000,A,4609.1089,N,12258.8168,W,0.43,193.00,220624,,,A*76
N3EG-9>BEACON,WIDE1-1,WIDE2-2,qAR,W7DG-5:T#024,121,058,029,018,078,00010001
N3EG-9>BEACON,WIDE1-1,WIDE2-2,qAR,W7DG-5:T#025,121,057,029,018,078,00010001
N3EG-9>GPSMV,WIDE1-1,WIDE2-2,qAR,W7DG-5:$GPRMC,040156.000,A,4609.1089,N,12258.8168,W,0.43,193.00,220624,,,A*76
N3EG-9>GPSMV,KB7CZ-15,ERINB*,WIDE2-1,qAR,K7LER-10:$GPRMC,040156.000,A,4609.1089,N,12258.8168,W,0.43,193.00,220624,,,A*76
N3EG-9>BEACON,WIDE1-1,WIDE2-2,qAR,W7DG-5:T#026,121,057,029,018,078,00010001
N3EG-9>BEACON,WIDE1-1,WIDE2-2,qAR,W7DG-5:T#027,121,056,028,018,078,00010001
N3EG-9>GPSMV,WIDE1-1,WIDE2-2,qAR,W7DG-5:$GPRMC,040156.000,A,4609.1089,N,12258.8168,W,0.43,193.00,220624,,,A*76
N3EG-9>BEACON,WIDE1-1,WIDE2-2,qAR,W7DG-5:T#028,121,056,028,018,078,00010001
N3EG-9>BEACON,WIDE1-1,WIDE2-2,qAR,W7DG-5:N3EG-9 mini van tracker TLM=Vdc*10,Temp (F)
N3EG-9>BEACON,WIDE1-1,WIDE2-2,qAR,W7DG-5:T#029,121,056,028,018,078,00010001
N3EG-9>GPSMV,WIDE1-1,WIDE2-2,qAR,W7DG-5:$GPRMC,040156.000,A,4609.1089,N,12258.8168,W,0.43,193.00,220624,,,A*76
N3EG-9>BEACON,WIDE1-1,WIDE2-2,qAR,W7DG-5:T#030,121,055,028,018,078,00010001
N3EG-9>BEACON,WIDE1-1,WIDE2-2,qAR,W7DG-5:T#031,121,055,028,018,078,00010001
N3EG-9>GPSMV,WIDE1-1,WIDE2-2,qAR,W7DG-5:$GPRMC,040156.000,A,4609.1089,N,12258.8168,W,0.43,193.00,220624,,,A*76
N3EG-9>BEACON,WIDE1-1,WIDE2-2,qAR,W7DG-5:T#032,142,056,028,018,078,00010001
N3EG-9>GPSMV,qAR,W7DG-5:$GPGGA,142035.000,4608.9874,N,12258.3077,W,1,09,1.0,13.1,M,-19.0,M,,0000*56
N3EG-9>GPSMV,MEISNR*,WIDE2-2,qAR,BORING:$GPGGA,142055.000,4608.8931,N,12258.0807,W,1,09,1.0,11.8,M,-19.0,M,,0000*56
N3EG-9>GPSMV,qAR,W7DG-5:$GPGGA,142245.000,4608.7993,N,12256.8913,W,1,09,1.0,14.8,M,-19.0,M,,0000*55
N3EG-9>GPSMV,WIDE1-1,WIDE1-1,qAR,W7DG-5:$GPRMC,142344.000,A,4608.7929,N,12256.7519,W,21.93,91.48,220624,,,A*72
N3EG-9>GPSMV,qAR,W7DG-5:$GPGGA,142810.000,4609.1341,N,12254.3696,W,1,08,1.2,16.5,M,-19.0,M,,0000*5A
N3EG-9>GPSMV,WIDE1-1,WIDE1-1,qAR,W7DG-5:$GPRMC,142848.000,A,4609.4124,N,12254.1573,W,33.99,53.61,220624,,,A*76
N3EG-9>GPSMV,qAR,W7DG-5:$GPGGA,142912.000,4609.5763,N,12254.1347,W,1,08,1.1,21.7,M,-19.0,M,,0000*57
N3EG-9>GPSMV,qAR,W7DG-5:$GPGGA,143017.000,4610.6655,N,12254.0653,W,1,09,1.0,30.6,M,-19.0,M,,0000*55
N3EG-9>GPSMV,qAR,W7DG-5:$GPGGA,143122.000,4611.7843,N,12253.5852,W,1,09,1.0,18.1,M,-19.0,M,,0000*5B
N3EG-9>GPSMV,MEISNR*,WIDE1-1,qAR,BORING:$GPRMC,143355.000,A,4614.4964,N,12253.1523,W,62.87,7.13,220624,,,A*4D
N3EG-9>GPSMV,qAR,W7DG-5:$GPGGA,143752.000,4617.5605,N,12253.7447,W,1,08,1.1,73.0,M,-18.8,M,,0000*5D
N3EG-9>GPSMV,qAR,W7DG-5:$GPGGA,150602.000,4619.9019,N,12229.7737,W,1,06,1.4,417.3,M,-18.5,M,,0000*68
N3EG-9>GPSMV,WIDE1-1,WIDE2-2,qAR,W7DG-5:$GPRMC,150742.000,A,4619.9336,N,12228.1437,W,46.14,67.23,220624,,,A*71
N3EG-9>GPSMV,WIDE1-1,WIDE2-2,qAR,VCAPK:$GPGGA,151127.000,4619.6974,N,12224.9675,W,1,07,1.2,600.0,M,-18.5,M,,0000*60
N3EG-9>GPSMV,qAR,W7DG-5:$GPGGA,151757.000,4617.9214,N,12221.1409,W,1,06,1.5,1081.3,M,-18.4,M,,0000*53
N3EG-9>GPSMV,qAR,VCAPK:$GPGGA,152952.000,4617.9439,N,12216.0064,W,1,08,1.1,951.1,M,-18.3,M,,0000*62
N3EG-9>GPSMV,qAR,VCAPK:$GPGGA,205423.000,4617.6830,N,12220.4900,W,1,08,1.0,1135.1,M,-18.3,M,,0000*52
N3EG-9>GPSMV,qAR,VCAPK:$GPGGA,205528.000,4617.6825,N,12220.4895,W,1,09,0.9,1134.2,M,-18.3,M,,0000*5A
N3EG-9>GPSMV,NICOLI,WIDE1*,WIDE2-2,qAR,NA7Q-2:$GPGGA,213702.000,4618.2941,N,12252.4968,W,1,07,1.2,148.3,M,-18.8,M,,0000*6D
N3EG-9>GPSMV,qAR,W7DG-5:$GPGGA,213743.000,4618.2606,N,12253.2192,W,1,09,0.9,134.6,M,-18.8,M,,0000*64
N3EG-9>GPSMV,MEISNR*,WIDE1-1,qAR,BORING:$GPRMC,213750.000,A,4618.1958,N,12253.3196,W,48.04,221.99,220624,,,A*43
N3EG-9>GPSMV,qAR,W7DG-5:$GPGGA,213848.000,4617.4939,N,12253.7540,W,1,08,1.0,59.9,M,-18.8,M,,0000*58
N3EG-9>GPSMV,MEISNR*,WIDE1-1,qAR,BORING:$GPRMC,214257.000,A,4615.3364,N,12253.0738,W,64.83,160.10,220624,,,A*4B
N3EG-9>GPSMV,qAR,W7DG-5:$GPGGA,214518.000,4612.8182,N,12253.5213,W,1,08,1.0,19.5,M,-18.8,M,,0000*5D
N3EG-9>GPSMV,qAR,W7DG-5:$GPGGA,214623.000,4611.6537,N,12253.6624,W,1,09,0.9,19.3,M,-18.9,M,,0000*5C
N3EG-9>GPSMV,WIDE1-1,WIDE2-2,qAR,W7DG-5:$GPGGA,214709.000,4610.8591,N,12253.9645,W,1,09,0.9,18.3,M,-18.9,M,,0000*5F
N3EG-9>GPSMV,qAR,W7DG-5:$GPGGA,214728.000,4610.5561,N,12254.1735,W,1,07,1.1,32.8,M,-18.9,M,,0000*53
N3EG-9>GPSMV,WIDE1-1,WIDE1-1,qAR,W7DG-5:$GPRMC,214804.000,A,4609.9305,N,12254.2432,W,63.94,173.17,220624,,,A*4F
N3EG-9>GPSMV,qAR,W7DG-5:$GPGGA,214833.000,4609.4799,N,12254.1786,W,1,08,1.0,19.0,M,-18.9,M,,0000*5D
N3EG-9>GPSMV,MEISNR*,WIDE1-1,qAR,BORING:$GPRMC,215311.000,A,4608.7852,N,12255.7076,W,32.23,269.19,220624,,,A*49
N3EG-9>GPSMV,qAS,N3EG:$GPGGA,215358.000,4608.7710,N,12256.0205,W,1,09,0.9,6.2,M,-18.9,M,,0000*61
N3EG-9>GPSMV,qAR,W7DG-5:$GPGGA,215503.000,4608.6457,N,12255.9540,W,1,09,0.9,8.5,M,-18.9,M,,0000*6D
N3EG-9>GPSMV,qAS,N3EG:$GPGGA,215608.000,4608.6459,N,12255.9526,W,1,09,0.9,12.3,M,-18.9,M,,0000*56
N3EG-9>BEACON,WIDE1-1,WIDE2-2,qAR,W7DG-5:T#003,128,087,037,021,077,00010001
N3EG-9>GPSMV,qAR,W7DG-5:$GPGGA,215713.000,4608.6454,N,12255.9541,W,1,09,0.9,6.4,M,-18.9,M,,0000*63
N3EG-9>GPSMV,WIDE1-1,WIDE2-2,qAR,W7DG-5:$GPGGA,215716.000,4608.6454,N,12255.9543,W,1,09,0.9,5.7,M,-18.9,M,,0000*64
N3EG-9>GPSMV,qAS,N3EG:$GPGGA,215818.000,4608.6445,N,12255.9538,W,1,09,0.9,7.5,M,-18.9,M,,0000*69
N3EG-9>GPSMV,WIDE1-1,WIDE1-1,qAR,W7DG-5:$GPRMC,215818.000,A,4608.6445,N,12255.9538,W,0.09,14.84,220624,,,A*44
N3EG-9>GPSMV,qAS,N3EG:$GPGGA,215923.000,4608.6436,N,12255.9538,W,1,09,0.9,7.6,M,-18.9,M,,0000*67
N3EG-9>GPSMV,qAS,N3EG:$GPGGA,220028.000,4608.6452,N,12255.9537,W,1,09,0.9,7.4,M,-18.9,M,,0000*6C
N3EG-9>GPSMV,qAR,W7DG-5:$GPGGA,220133.000,4608.6480,N,12255.9550,W,1,09,0.9,2.8,M,-18.9,M,,0000*60
N3EG-9>GPSMV,qAR,W7DG-5:$GPGGA,220238.000,4608.7092,N,12256.0250,W,1,08,1.1,7.9,M,-18.9,M,,0000*6F
N3EG-9>GPSMV,NICOLI,WIDE1*,WIDE1-1,qAR,NA7Q-2:$GPRMC,220325.000,A,4608.7698,N,12256.0159,W,0.22,351.68,220624,,,A*74
N3EG-9>GPSMV,qAR,W7DG-5:$GPGGA,220553.000,4608.8015,N,12256.8717,W,1,09,0.9,9.1,M,-18.9,M,,0000*65
N3EG-9>GPSMV,qAR,W7DG-5:$GPGGA,220658.000,4608.8372,N,12257.4481,W,1,09,0.9,6.1,M,-18.9,M,,0000*61
N3EG-9>GPSMV,NICOLI,WIDE1*,WIDE2-2,qAR,NA7Q-2:$GPGGA,220723.000,4608.8497,N,12257.6581,W,1,09,0.9,5.6,M,-18.9,M,,0000*67
N3EG-9>GPSMV,qAR,W7DG-5:$GPGGA,220803.000,4608.8714,N,12257.8921,W,1,09,0.9,4.1,M,-18.9,M,,0000*6C
N3EG-9>GPSMV,WIDE1-1,WIDE1-1,qAR,W7DG-5:$GPRMC,220832.000,A,4608.9017,N,12258.0949,W,31.58,288.11,220624,,,A*45
N3EG-9>GPSMV,qAR,W7DG-5:$GPGGA,220908.000,4609.0922,N,12258.5094,W,1,08,1.1,0.8,M,-18.9,M,,0000*64
N3EG-9>GPSMV,qAS,N3EG:$GPGGA,221118.000,4609.1091,N,12258.8162,W,1,08,1.1,0.9,M,-18.9,M,,0000*68
N3EG-9>GPSMV,qAR,W7DG-5:$GPGGA,221223.000,4609.1129,N,12258.8150,W,1,08,1.1,8.0,M,-18.9,M,,0000*61
N3EG-9>GPSMV,qAR,W7DG-5:$GPGGA,221328.000,4609.1146,N,12258.8144,W,1,08,1.1,12.0,M,-18.9,M,,0000*5C
N3EG-9>GPSMV,WIDE1-1,WIDE1-1,qAR,W7DG-5:$GPRMC,221339.000,A,4609.1135,N,12258.8148,W,0.17,345.10,220624,,,A*75
N3EG-9>GPSMV,qAR,W7DG-5:$GPGGA,221433.000,4609.1109,N,12258.8153,W,1,08,1.1,7.1,M,-18.9,M,,0000*69
N3EG-9>GPSMV,qAR,W7DG-5:$GPGGA,221538.000,4609.1167,N,12258.8145,W,1,08,1.1,16.4,M,-18.9,M,,0000*59
N3EG-9>GPSMV,qAR,W7DG-5:$GPGGA,221643.000,4609.1114,N,12258.8153,W,1,08,1.1,8.3,M,-18.9,M,,0000*6D
N3EG-9>GPSMV,WIDE1-1,WIDE2-2,qAR,W7DG-5:$GPGGA,221730.000,4609.1116,N,12258.8167,W,1,08,1.1,5.2,M,-18.9,M,,0000*61
N3EG-9>GPSMV,qAR,W7DG-5:$GPGGA,221748.000,4609.1108,N,12258.8165,W,1,08,1.1,2.9,M,-18.9,M,,0000*6F
N3EG-9>GPSMV,WIDE1-1,WIDE1-1,qAR,W7DG-5:$GPRMC,221846.000,A,4609.1127,N,12258.8169,W,0.11,111.20,220624,,,A*70
N3EG-9>GPSMV,qAR,W7DG-5:$GPGGA,221853.000,4609.1121,N,12258.8167,W,1,08,1.1,4.6,M,-18.9,M,,0000*6A
N3EG-9>GPSMV,qAR,W7DG-5:$GPGGA,221958.000,4609.1100,N,12258.8173,W,1,07,1.6,3.3,M,-18.9,M,,0000*6C
N3EG-9>GPSMV,qAR,W7DG-5:$GPGGA,222103.000,4609.1111,N,12258.8190,W,1,08,1.1,2.8,M,-18.9,M,,0000*66
N3EG-9>GPSMV,qAR,W7DG-5:$GPGGA,222208.000,4609.1125,N,12258.8206,W,1,06,2.1,6.0,M,-18.9,M,,0000*64
N3EG-9>GPSMV,qAS,N3EG:$GPGGA,222313.000,4609.1075,N,12258.8224,W,1,07,1.5,0.0,M,-18.9,M,,0000*6B
N3EG-9>GPSMV,WIDE1-1,WIDE1-1,qAS,N3EG:$GPRMC,222353.000,A,4609.1095,N,12258.8222,W,0.32,3.43,220624,,,A*7E
N3EG-9>GPSMV,qAR,W7DG-5:$GPGGA,222418.000,4609.1102,N,12258.8207,W,1,07,1.2,4.0,M,-18.9,M,,0000*64
N3EG-9>GPSMV,qAR,W7DG-5:$GPGGA,222523.000,4609.1141,N,12258.8189,W,1,07,1.2,8.1,M,-18.9,M,,0000*62
N3EG-9>GPSMV,WIDE1-1,WIDE2-2,qAR,W7DG-5:$GPRMC,222542.000,A,4609.1110,N,12258.8183,W,0.11,147.88,220624,,,A*7B
N3EG-9>BEACON,WIDE1-1,WIDE2-2,qAR,W7DG-5:T#004,129,090,038,021,077,00010001
N3EG-9>GPSMV,qAR,W7DG-5:$GPGGA,222628.000,4609.1089,N,12258.8166,W,1,08,1.1,-2.2,M,-18.9,M,,0000*46
N3EG-9>GPSMV,qAR,W7DG-5:$GPGGA,222733.000,4609.1078,N,12258.8154,W,1,08,1.1,-0.1,M,-18.9,M,,0000*43
N3EG-9>GPSMV,WIDE1-1,WIDE2-2,qAR,W7DG-5:$GPGGA,222737.000,4609.1079,N,12258.8151,W,1,08,1.1,-0.4,M,-18.9,M,,0000*46
N3EG-9>GPSMV,qAR,W7DG-5:$GPGGA,222838.000,4609.1130,N,12258.8127,W,1,08,1.1,10.1,M,-18.9,M,,0000*52
N3EG-9>GPSMV,WIDE1-1,WIDE1-1,qAR,W7DG-5:$GPRMC,222837.000,A,4609.1131,N,12258.8128,W,0.27,111.49,220624,,,A*7D
N3EG-9>GPSMV,WIDE1-1,WIDE2-2,qAR,W7DG-5:$GPGGA,222838.000,4609.1130,N,12258.8127,W,1,08,1.1,10.1,M,-18.9,M,,0000*52
N3EG-9>BEACON,WIDE1-1,WIDE2-2,qAR,W7DG-5:T#005,129,091,038,021,076,00010001
N3EG-9>GPSMV,qAR,W7DG-5:$GPGGA,230951.282,4609.2714,N,12258.8792,W,1,04,3.6,23.5,M,-19.0,M,,0000*59
N3EG-9>GPSMV,WIDE1-1,WIDE1-1,qAR,W7DG-5:$GPRMC,231000.282,A,4609.3081,N,12258.9534,W,17.76,304.19,220624,,,A*4A
N3EG-9>GPSMV,qAS,N3EG:$GPGGA,231056.000,4609.5244,N,12259.3846,W,1,08,1.0,11.4,M,-19.0,M,,0000*5D
N3EG-9>GPSMV,qAR,W7DG-5:$GPGGA,231201.000,4609.8096,N,12259.9617,W,1,09,0.9,11.6,M,-19.0,M,,0000*56
N3EG-9>GPSMV,qAR,W7DG-5:$GPGGA,231306.000,4610.1293,N,12300.6107,W,1,09,0.9,11.2,M,-19.0,M,,0000*56
N3EG-9>GPSMV,qAS,N3EG:$GPGGA,231408.000,4610.5441,N,12301.4243,W,1,09,0.9,5.1,M,-19.0,M,,0000*64
N3EG-9>GPSMV,WIDE1-1,WIDE1-1,qAS,N3EG:$GPRMC,231503.000,A,4610.5225,N,12301.5681,W,31.30,196.37,220624,,,A*49
N3EG-9>GPSMV,qAR,W7DG-5:$GPGGA,231513.000,4610.4305,N,12301.6150,W,1,09,0.9,9.8,M,-19.0,M,,0000*6F
N3EG-9>GPSMV,qAR,W7DG-5:$GPGGA,231618.000,4609.9424,N,12301.9811,W,1,09,0.9,7.8,M,-19.0,M,,0000*6B
N3EG-9>GPSMV,qAR,W7DG-5:$GPGGA,231723.000,4609.9009,N,12302.7281,W,1,08,1.3,6.4,M,-19.0,M,,0000*60
N3EG-9>GPSMV,KB7CZ-15*,WIDE2-2,qAR,W7DG-5:$GPGGA,231812.000,4610.2566,N,12303.1563,W,1,09,0.9,3.8,M,-19.0,M,,0000*6D
N3EG-9>GPSMV,qAR,W7DG-5:$GPGGA,231828.000,4610.3301,N,12303.3379,W,1,09,0.9,6.8,M,-19.0,M,,0000*68
N3EG-9>GPSMV,qAR,W7DG-5:$GPGGA,231933.000,4610.3401,N,12304.2190,W,1,09,0.9,6.1,M,-19.0,M,,0000*6E
N3EG-9>GPSMV,WIDE1-1,WIDE1-1,qAR,W7DG-5:$GPRMC,232011.000,A,4610.4210,N,12304.7176,W,32.53,286.64,220624,,,A*41
N3EG-9>GPSMV,qAS,N3EG:$GPGGA,232038.000,4610.4834,N,12305.0232,W,1,09,0.9,4.8,M,-19.1,M,,0000*60
N3EG-9>GPSMV,qAR,W7DG-5:$GPGGA,232143.000,4610.5513,N,12305.5085,W,1,09,0.9,3.8,M,-19.1,M,,0000*68
N3EG-9>GPSMV,qAR,W7DG-5:$GPGGA,232248.000,4610.5079,N,12305.4821,W,1,09,0.9,6.9,M,-19.1,M,,0000*6A
N3EG-9>GPSMV,qAR,W7DG-5:$GPGGA,232353.000,4610.5079,N,12305.4819,W,1,09,0.9,5.5,M,-19.1,M,,0000*65
N3EG-9>GPSMV,qAR,W7DG-5:$GPGGA,232458.000,4610.5076,N,12305.4812,W,1,09,0.9,5.6,M,-19.1,M,,0000*6E
N3EG-9>GPSMV,WIDE1-1,WIDE1-1,qAS,N3EG:$GPRMC,232518.000,A,4610.5072,N,12305.4814,W,0.24,218.06,220624,,,A*77
N3EG-9>GPSMV,WIDE1-1,WIDE2-2,qAR,W7DG-5:$GPRMC,232528.000,A,4610.5073,N,12305.4812,W,0.40,193.82,220624,,,A*7D
N3EG-9>GPSMV,qAR,W7DG-5:$GPGGA,232603.000,4610.5075,N,12305.4817,W,1,09,0.9,5.8,M,-19.1,M,,0000*6A
N3EG-9>BEACON,WIDE1-1,WIDE2-2,qAR,W7DG-5:T#006,128,090,038,021,077,00010001
N3EG-9>GPSMV,qAR,W7DG-5:$GPGGA,232708.000,4610.5069,N,12305.4817,W,1,09,0.9,1.9,M,-19.1,M,,0000*68
N3EG-9>GPSMV,WIDE1-1,WIDE2-2,qAS,N3EG:$GPGGA,232819.000,4610.5076,N,12305.4821,W,1,10,0.8,4.0,M,-19.1,M,,0000*69
N3EG-9>GPSMV,qAR,W7DG-5:$GPGGA,232918.000,4610.5078,N,12305.4827,W,1,09,0.8,5.1,M,-19.1,M,,0000*69
N3EG-9>GPSMV,qAR,W7DG-5:$GPGGA,233023.000,4610.5084,N,12305.4815,W,1,10,0.8,4.5,M,-19.1,M,,0000*66
N3EG-9>GPSMV,MEISNR*,WIDE1-1,qAR,BORING:$GPRMC,233025.000,A,4610.5083,N,12305.4816,W,0.31,203.73,220624,,,A*7D
N3EG-9>GPSMV,qAS,N3EG:$GPGGA,233128.000,4610.5080,N,12305.4823,W,1,09,0.8,4.7,M,-19.1,M,,0000*67
N3EG-9>GPSMV,qAR,W7DG-5:$GPGGA,233338.000,4610.5085,N,12305.4828,W,1,09,0.8,7.9,M,-19.1,M,,0000*67
N3EG-9>GPSMV,qAR,W7DG-5:$GPGGA,233443.000,4610.5088,N,12305.4819,W,1,09,0.8,11.3,M,-19.1,M,,0000*5E
N3EG-9>GPSMV,WIDE1-1,WIDE1-1,qAR,W7DG-5:$GPRMC,233532.000,A,4610.5083,N,12305.4828,W,0.02,103.49,220624,,,A*79
N3EG-9>GPSMV,qAR,W7DG-5:$GPGGA,233548.000,4610.5081,N,12305.4829,W,1,09,0.8,5.5,M,-19.1,M,,0000*6D
N3EG-9>GPSMV,qAR,W7DG-5:$GPGGA,233758.000,4610.5080,N,12305.4829,W,1,09,0.8,4.6,M,-19.1,M,,0000*6D
N3EG-9>GPSMV,WICKI*,WIDE2-2,qAR,NA7Q-2:$GPGGA,233826.000,4610.5080,N,12305.4830,W,1,09,0.8,4.4,M,-19.1,M,,0000*61
N3EG-9>GPSMV,qAR,W7DG-5:$GPGGA,233903.000,4610.5078,N,12305.4830,W,1,08,1.0,4.7,M,-19.1,M,,0000*6B
N3EG-9>GPSMV,qAR,W7DG-5:$GPGGA,234008.000,4610.5083,N,12305.4821,W,1,08,1.0,1.9,M,-19.1,M,,0000*61
N3EG-9>GPSMV,WIDE1-1,WIDE2-2,qAR,W7DG-5:$GPGGA,234009.000,4610.5084,N,12305.4821,W,1,08,1.0,2.0,M,-19.1,M,,0000*6D
N3EG-9>BEACON,WIDE1-1,WIDE2-2,qAR,W7DG-5:T#007,127,091,038,021,076,00010001
N3EG-9>GPSMV,qAR,W7DG-5:$GPGGA,001031.000,4610.5125,N,12305.4818,W,1,06,1.6,18.6,M,-19.1,M,,0000*57
N3EG-9>GPSMV,WIDE1-1,WIDE1-1,qAR,W7DG-5:$GPRMC,001124.000,A,4610.5480,N,12305.2723,W,38.73,107.26,230624,,,A*4D
N3EG-9>GPSMV,qAR,W7DG-5:$GPGGA,001136.000,4610.5114,N,12305.1025,W,1,07,1.2,16.2,M,-19.1,M,,0000*5F
N3EG-9>GPSMV,qAR,W7DG-5:$GPGGA,001241.000,4610.3318,N,12304.3152,W,1,07,1.2,17.1,M,-19.1,M,,0000*54
N3EG-9>GPSMV,qAR,W7DG-5:$GPGGA,001346.000,4610.3513,N,12303.4130,W,1,08,1.1,18.0,M,-19.1,M,,0000*59
N3EG-9>GPSMV,qAR,W7DG-5:$GPGGA,001556.000,4609.9346,N,12302.1234,W,1,08,1.1,23.3,M,-19.1,M,,0000*52
N3EG-9>GPSMV,WIDE1-1,WIDE1-1,qAR,W7DG-5:$GPRMC,001631.000,A,4609.9300,N,12301.8557,W,17.21,173.43,230624,,,A*40
N3EG-9>GPSMV,qAR,W7DG-5:$GPGGA,001701.000,4609.7324,N,12301.5815,W,1,08,1.1,18.0,M,-19.1,M,,0000*5D
N3EG-9>GPSMV,qAR,W7DG-5:$GPGGA,001806.000,4609.5827,N,12301.3205,W,1,08,1.1,17.2,M,-19.1,M,,0000*5F
N3EG-9>GPSMV,qAR,W7DG-5:$GPGGA,001911.000,4609.5839,N,12301.3199,W,1,08,1.1,16.9,M,-19.1,M,,0000*5B
N3EG-9>GPSMV,qAS,N3EG:$GPGGA,002016.000,4609.5840,N,12301.3199,W,1,08,1.1,16.8,M,-19.1,M,,0000*59
N3EG-9>GPSMV,qAR,W7DG-5:$GPGGA,002118.000,4609.5837,N,12301.3204,W,1,08,1.1,14.8,M,-19.1,M,,0000*53
N3EG-9>GPSMV,WIDE1-1,WIDE1-1,qAR,W7DG-5:$GPRMC,002135.000,A,4609.5831,N,12301.3209,W,0.03,22.61,230624,,,A*41
N3EG-9>GPSMV,qAR,W7DG-5:$GPGGA,002223.000,4609.5827,N,12301.3212,W,1,08,1.2,7.2,M,-19.1,M,,0000*65
N3EG-9>GPSMV,qAR,W7DG-5:$GPGGA,002328.000,4609.5825,N,12301.3215,W,1,08,1.2,5.8,M,-19.1,M,,0000*62
N3EG-9>GPSMV,qAR,W7DG-5:$GPGGA,002433.000,4609.5990,N,12301.3347,W,1,08,1.2,7.2,M,-19.1,M,,0000*6E
N3EG-9>GPSMV,qAR,W7DG-5:$GPGGA,002538.000,4609.5428,N,12301.3171,W,1,07,1.3,6.4,M,-19.1,M,,0000*64
N3EG-9>GPSMV,NICOLI,WIDE1*,WIDE1-1,qAR,NA7Q-2:$GPRMC,002642.000,A,4608.9532,N,12300.7231,W,47.04,134.50,230624,,,A*4B
N3EG-9>GPSMV,qAR,W7DG-5:$GPGGA,002853.000,4608.9255,N,12259.2567,W,1,09,1.2,2.4,M,-19.0,M,,0000*61
N3EG-9>GPSMV,WIDE1-1,WIDE2-2,qAS,N3EG:$GPGGA,002901.000,4609.0063,N,12259.2249,W,1,08,1.2,4.3,M,-19.0,M,,0000*63
N3EG-9>GPSMV,qAR,W7DG-5:$GPGGA,002958.000,4609.3212,N,12258.9944,W,1,09,1.2,5.9,M,-19.0,M,,0000*6E
N3EG-9>GPSMV,WIDE1-1,WIDE1-1,qAR,W7DG-5:$GPRMC,003149.000,A,4609.1106,N,12258.8161,W,0.10,207.27,230624,,,A*7C
N3EG-9>GPSMV,qAR,W7DG-5:$GPGGA,003208.000,4609.1119,N,12258.8167,W,1,07,1.3,-4.4,M,-19.0,M,,0000*4D
N3EG-9>GPSMV,qAR,W7DG-5:$GPGGA,003313.000,4609.1121,N,12258.8159,W,1,06,1.9,-4.5,M,-19.0,M,,0000*4A
N3EG-9>GPSMV,qAR,W7DG-5:$GPGGA,003418.000,4609.1126,N,12258.8152,W,1,06,2.0,-3.3,M,-19.0,M,,0000*41
N3EG-9>GPSMV,qAS,N3EG:$GPGGA,003523.000,4609.1243,N,12258.8112,W,1,06,1.6,-0.5,M,-19.0,M,,0000*4C
N3EG-9>GPSMV,qAR,W7DG-5:$GPGGA,003628.000,4609.1141,N,12258.8143,W,1,07,1.5,-0.8,M,-19.0,M,,0000*4E
N3EG-9>GPSMV,WIDE1-1,WIDE1-1,qAR,W7DG-5:$GPRMC,003656.000,A,4609.1119,N,12258.8155,W,0.02,126.36,230624,,,A*7F
N3EG-9>GPSMV,qAR,W7DG-5:$GPGGA,003733.000,4609.1125,N,12258.8155,W,1,05,5.8,-1.7,M,-19.0,M,,0000*45
N3EG-9>BEACON,WIDE1-1,WIDE2-2,qAR,W7DG-5:N3EG-9 mini van tracker TLM=Vdc*10,Temp (F)
N3EG-9>GPSMV,qAR,W7DG-5:$GPGGA,003838.000,4609.1163,N,12258.8143,W,1,06,2.1,1.3,M,-19.0,M,,0000*60
N3EG-9>GPSMV,WIDE1-1,WIDE2-2,qAR,W7DG-5:$GPGGA,003908.000,4609.1148,N,12258.8146,W,1,07,1.5,1.7,M,-19.0,M,,0000*6C
N3EG-9>GPSMV,MEISNR,BORING*,WIDE2-1,qAR,MTHOOD:$GPGGA,003908.000,4609.1148,N,12258.8146,W,1,07,1.5,1.7,M,-19.0,M,,0000*,j`6C
N3EG-9>GPSMV,qAR,W7DG-5:$GPGGA,003943.000,4609.1144,N,12258.8145,W,1,07,1.3,1.9,M,-19.0,M,,0000*64
N3EG-9>GPSMV,qAS,N3EG:$GPGGA,004048.000,4609.1105,N,12258.8152,W,1,07,1.3,3.0,M,-19.0,M,,0000*69
N3EG-9>GPSMV,qAR,W7DG-5:$GPGGA,004153.000,4609.1097,N,12258.8152,W,1,07,1.4,3.8,M,-19.0,M,,0000*67
N3EG-9>GPSMV,WIDE1-1,WIDE1-1,qAR,W7DG-5:$GPRMC,004203.000,A,4609.1103,N,12258.8155,W,0.36,175.65,230624,,,A*70
N3EG-9>GPSMV,qAR,W7DG-5:$GPGGA,004258.000,4609.1082,N,12258.8143,W,1,07,1.4,13.8,M,-19.0,M,,0000*5A
N3EG-9>GPSMV,qAR,W7DG-5:$GPGGA,004403.000,4609.1121,N,12258.8150,W,1,07,1.4,0.6,M,-19.0,M,,0000*64
N3EG-9>GPSMV,qAS,N3EG:$GPGGA,004508.000,4609.1142,N,12258.8135,W,1,07,1.4,3.6,M,-19.0,M,,0000*6B
N3EG-9>GPSMV,qAR,W7DG-5:$GPGGA,004613.000,4609.1129,N,12258.8152,W,1,08,1.2,-4.6,M,-19.0,M,,0000*4D
N3EG-9>GPSMV,WIDE1-1,WIDE1-1,qAR,W7DG-5:$GPRMC,004710.000,A,4609.1127,N,12258.8154,W,0.42,34.50,230624,,,A*41
N3EG-9>GPSMV,qAR,W7DG-5:$GPGGA,004718.000,4609.1132,N,12258.8145,W,1,07,1.4,-5.8,M,-19.0,M,,0000*4D
N3EG-9>GPSMV,qAR,W7DG-5:$GPGGA,004823.000,4609.1105,N,12258.8151,W,1,07,1.4,2.5,M,-19.0,M,,0000*6C
N3EG-9>GPSMV,WIDE1-1,WIDE2-2,qAR,W7DG-5:$GPGGA,004915.000,4609.1116,N,12258.8144,W,1,06,1.5,11.7,M,-19.0,M,,0000*5E
N3EG-9>GPSMV,WIDE1-1,WIDE1-1,qAR,W7DG-5:$GPRMC,004915.000,A,4609.1116,N,12258.8144,W,0.67,30.91,230624,,,A*47
N3EG-9>BEACON,WIDE1-1,WIDE2-2,qAR,W7DG-5:T#009,129,092,038,021,076,00010001
N3EG-9>GPSMV,qAR,W7DG-5:$GPGGA,235952.027,0000.0000,N,00000.0000,E,0,00,,0.0,M,0.0,M,,0000*4C
N3EG-9>GPSMV,qAS,N3EG:$GPGGA,010228.572,4609.1089,N,12258.8153,W,1,04,3.7,11.7,M,-19.0,M,,0000*5D
N3EG-9>GPSMV,WIDE1-1,WIDE1-1,qAR,W7DG-5:$GPRMC,010230.572,A,4609.1091,N,12258.8151,W,0.09,122.57,230624,,,A*74
N3EG-9>GPSMV,qAR,W7DG-5:$GPGGA,010333.000,4609.1127,N,12258.8147,W,1,05,2.0,6.7,M,-19.0,M,,0000*67
N3EG-9>GPSMV,qAR,W7DG-5:$GPGGA,010438.000,4609.1069,N,12258.8146,W,1,05,2.1,11.8,M,-19.0,M,,0000*59
N3EG-9>GPSMV,qAR,W7DG-5:$GPGGA,010543.000,4609.1083,N,12258.8151,W,1,05,2.1,5.1,M,-19.0,M,,0000*6A
N3EG-9>GPSMV,qAS,N3EG:$GPGGA,010648.000,4609.1083,N,12258.8157,W,1,06,1.8,3.0,M,-19.0,M,,0000*6A
N3EG-9>GPSMV,WIDE1-1,WIDE1-1,qAR,W7DG-5:$GPRMC,010738.000,A,4609.1082,N,12258.8157,W,0.06,48.68,230624,,,A*43
N3EG-9>GPSMV,qAR,W7DG-5:$GPGGA,010753.000,4609.1083,N,12258.8157,W,1,06,1.8,4.7,M,-19.0,M,,0000*61
N3EG-9>GPSMV,qAR,W7DG-5:$GPGGA,010858.000,4609.1089,N,12258.8162,W,1,06,1.8,1.5,M,-19.0,M,,0000*6E
N3EG-9>GPSMV,WIDE1-1,WIDE2-2,qAS,N3EG:$GPGGA,010929.000,4609.1088,N,12258.8162,W,1,06,1.8,1.8,M,-19.0,M,,0000*65